createdAt,value
2022-12-29T00:00:21.042Z,16.60
2022-12-29T00:02:48.304Z,15.83
2022-12-29T00:05:15.707Z,16.40
2022-12-29T00:07:42.603Z,15.27
2022-12-29T00:10:09.738Z,15.77
2022-12-29T00:12:56.933Z,15.30
2022-12-29T00:15:38.834Z,15.57
2022-12-29T00:18:07.050Z,17.37
2022-12-29T00:20:54.877Z,16.30
2022-12-29T00:23:40.623Z,17.50
2022-12-29T00:26:34.995Z,17.43
2022-12-29T00:29:20.426Z,17.67
2022-12-29T00:32:05.846Z,17.10
2022-12-29T00:34:51.117Z,17.40
2022-12-29T00:37:38.557Z,19.13
2022-12-29T00:40:24.926Z,16.90
2022-12-29T00:43:10.358Z,18.53
2022-12-29T00:45:37.266Z,18.20
2022-12-29T00:48:04.423Z,16.73
2022-12-29T00:50:31.415Z,17.57
2022-12-29T00:52:58.349Z,19.17
2022-12-29T00:55:25.317Z,20.47
2022-12-29T00:57:52.225Z,19.10
2022-12-29T01:00:19.229Z,16.93
2022-12-29T01:02:46.223Z,15.27
2022-12-29T01:05:13.324Z,16.03
2022-12-29T01:07:40.259Z,15.63
2022-12-29T01:10:10.748Z,16.40
2022-12-29T01:12:44.879Z,17.73
2022-12-29T01:15:15.623Z,16.67
2022-12-29T01:17:42.970Z,17.70
2022-12-29T01:20:11.726Z,17.10
2022-12-29T01:22:38.791Z,16.77
2022-12-29T01:25:07.062Z,17.60
2022-12-29T01:27:34.348Z,18.80
2022-12-29T01:30:01.627Z,17.17
2022-12-29T01:32:28.526Z,16.73
2022-12-29T01:34:55.379Z,17.90
2022-12-29T01:37:22.393Z,14.53
2022-12-29T01:39:49.324Z,14.40
2022-12-29T01:42:20.357Z,14.20
2022-12-29T01:44:56.074Z,14.70
2022-12-29T01:47:39.940Z,15.00
2022-12-29T01:50:26.292Z,14.67
2022-12-29T01:53:15.391Z,17.13
2022-12-29T01:55:51.298Z,15.83
2022-12-29T01:58:21.496Z,14.90
2022-12-29T02:00:49.667Z,15.10
2022-12-29T02:03:18.528Z,14.27
2022-12-29T02:06:13.268Z,14.97
2022-12-29T02:08:42.056Z,14.40
2022-12-29T02:11:09.063Z,14.37
2022-12-29T02:13:36.005Z,15.40
2022-12-29T02:16:40.195Z,14.17
2022-12-29T02:19:25.043Z,12.83
2022-12-29T02:22:20.728Z,14.90
2022-12-29T02:25:28.475Z,14.37
2022-12-29T02:28:18.423Z,14.10
2022-12-29T02:31:26.222Z,14.27
2022-12-29T02:34:05.258Z,13.30
2022-12-29T02:36:51.537Z,12.47
2022-12-29T02:39:31.995Z,13.40
2022-12-29T02:42:16.121Z,13.47
2022-12-29T02:45:02.283Z,13.27
2022-12-29T02:47:43.241Z,13.17
2022-12-29T02:50:46.516Z,13.00
2022-12-29T02:53:17.457Z,12.60
2022-12-29T02:55:52.630Z,12.03
2022-12-29T02:58:23.516Z,13.00
2022-12-29T03:01:21.184Z,14.27
2022-12-29T03:04:42.065Z,11.93
2022-12-29T03:07:24.202Z,11.70
2022-12-29T03:10:18.531Z,12.13
2022-12-29T03:13:26.684Z,14.50
2022-12-29T03:16:16.309Z,12.97
2022-12-29T03:18:48.762Z,13.30
2022-12-29T03:21:53.988Z,14.37
2022-12-29T03:24:26.774Z,12.30
2022-12-29T03:26:59.179Z,12.87
2022-12-29T03:29:30.961Z,12.37
2022-12-29T03:31:59.476Z,12.60
2022-12-29T03:34:27.564Z,11.70
2022-12-29T03:37:12.401Z,12.60
2022-12-29T03:39:39.697Z,13.20
2022-12-29T03:42:11.703Z,13.80
2022-12-29T03:44:42.667Z,11.83
2022-12-29T03:47:12.451Z,13.60
2022-12-29T03:49:39.959Z,13.20
2022-12-29T03:52:07.140Z,13.53
2022-12-29T03:54:34.293Z,12.50
2022-12-29T03:57:01.289Z,11.83
2022-12-29T03:59:28.350Z,11.60
2022-12-29T04:01:55.934Z,12.37
2022-12-29T04:04:23.316Z,11.17
2022-12-29T04:06:50.423Z,11.60
2022-12-29T04:09:17.520Z,13.20
2022-12-29T04:11:44.653Z,11.40
2022-12-29T04:14:11.571Z,10.30
2022-12-29T04:16:39.746Z,11.30
2022-12-29T04:19:08.233Z,12.40
2022-12-29T04:21:35.595Z,11.40
2022-12-29T04:24:02.712Z,11.30
2022-12-29T04:26:29.642Z,10.90
2022-12-29T04:28:56.572Z,10.73
2022-12-29T04:31:23.605Z,9.40
2022-12-29T04:33:50.651Z,10.60
2022-12-29T04:36:17.596Z,10.10
2022-12-29T04:38:45.818Z,10.50
2022-12-29T04:41:12.709Z,10.03
2022-12-29T04:43:39.661Z,10.10
2022-12-29T04:46:07.043Z,11.73
2022-12-29T04:48:34.480Z,10.70
2022-12-29T04:51:01.534Z,10.93
2022-12-29T04:53:28.488Z,11.20
2022-12-29T04:55:55.554Z,11.37
2022-12-29T04:58:23.641Z,9.70
2022-12-29T05:00:52.710Z,10.70
2022-12-29T05:03:19.862Z,10.20
2022-12-29T05:05:46.991Z,10.43
2022-12-29T05:08:13.851Z,9.90
2022-12-29T05:10:40.932Z,10.10
2022-12-29T05:13:08.108Z,9.57
2022-12-29T05:15:35.153Z,10.83
2022-12-29T05:18:02.055Z,10.93
2022-12-29T05:20:28.969Z,10.03
2022-12-29T05:22:56.019Z,10.43
2022-12-29T05:25:22.969Z,11.93
2022-12-29T05:27:49.855Z,9.30
2022-12-29T05:30:16.834Z,9.37
2022-12-29T05:32:46.310Z,10.03
2022-12-29T05:35:13.847Z,9.70
2022-12-29T05:37:41.523Z,8.83
2022-12-29T05:40:09.537Z,9.47
2022-12-29T05:42:36.442Z,10.10
2022-12-29T05:45:03.870Z,9.20
2022-12-29T05:47:30.842Z,10.00
2022-12-29T05:49:57.933Z,10.43
2022-12-29T05:52:24.833Z,10.83
2022-12-29T05:54:52.016Z,10.70
2022-12-29T05:57:18.938Z,10.40
2022-12-29T05:59:45.934Z,9.50
2022-12-29T06:02:12.956Z,10.07
2022-12-29T06:04:39.951Z,10.10
2022-12-29T06:07:06.904Z,10.70
2022-12-29T06:09:34.153Z,10.57
2022-12-29T06:12:01.081Z,9.60
2022-12-29T06:14:27.997Z,9.30
2022-12-29T06:16:54.915Z,8.80
2022-12-29T06:19:21.784Z,10.70
2022-12-29T06:21:48.781Z,9.77
2022-12-29T06:24:15.673Z,10.40
2022-12-29T06:26:42.919Z,10.33
2022-12-29T06:29:09.923Z,9.37
2022-12-29T06:31:37.187Z,8.60
2022-12-29T06:34:08.250Z,9.17
2022-12-29T06:36:35.814Z,9.40
2022-12-29T06:39:02.782Z,9.43
2022-12-29T06:41:32.395Z,9.57
2022-12-29T06:43:59.592Z,8.90
2022-12-29T06:46:26.515Z,10.70
2022-12-29T06:48:53.429Z,10.60
2022-12-29T06:51:20.343Z,9.63
2022-12-29T06:53:47.219Z,9.60
2022-12-29T06:56:14.195Z,10.83
2022-12-29T06:58:41.125Z,11.00
2022-12-29T07:01:08.152Z,11.23
2022-12-29T07:03:35.087Z,13.93
2022-12-29T07:06:02.169Z,10.57
2022-12-29T07:08:29.103Z,12.47
2022-12-29T07:10:55.984Z,12.50
2022-12-29T07:13:22.880Z,18.57
2022-12-29T07:15:49.751Z,16.37
2022-12-29T07:18:16.688Z,14.10
2022-12-29T07:20:44.423Z,14.63
2022-12-29T07:23:11.608Z,13.73
2022-12-29T07:25:38.621Z,10.93
2022-12-29T07:28:05.697Z,10.70
2022-12-29T07:30:33.059Z,10.07
2022-12-29T07:33:00.213Z,10.60
2022-12-29T07:35:27.132Z,10.77
2022-12-29T07:37:54.016Z,9.90
2022-12-29T07:40:20.953Z,10.13
2022-12-29T07:42:47.945Z,13.00
2022-12-29T07:45:14.913Z,12.20
2022-12-29T07:47:44.155Z,12.77
2022-12-29T07:50:11.097Z,12.33
2022-12-29T07:52:38.146Z,13.07
2022-12-29T07:55:05.646Z,13.40
2022-12-29T07:57:35.693Z,12.80
2022-12-29T08:00:04.583Z,13.90
2022-12-29T08:02:31.676Z,13.13
2022-12-29T08:04:58.659Z,14.37
2022-12-29T08:07:25.628Z,13.80
2022-12-29T08:09:52.513Z,12.47
2022-12-29T08:12:19.876Z,12.20
2022-12-29T08:14:46.905Z,12.57
2022-12-29T08:17:13.907Z,14.40
2022-12-29T08:19:41.150Z,14.40
2022-12-29T08:22:08.125Z,14.40
2022-12-29T08:24:35.008Z,15.40
2022-12-29T08:27:10.889Z,15.03
2022-12-29T08:29:42.921Z,13.60
2022-12-29T08:32:09.831Z,15.90
2022-12-29T08:34:36.866Z,14.43
2022-12-29T08:37:03.885Z,15.20
2022-12-29T08:39:30.857Z,15.03
2022-12-29T08:41:57.803Z,13.57
2022-12-29T08:44:25.160Z,13.40
2022-12-29T08:46:52.089Z,16.43
2022-12-29T08:49:18.992Z,15.87
2022-12-29T08:51:45.955Z,15.40
2022-12-29T08:54:13.949Z,15.70
2022-12-29T08:56:40.985Z,14.97
2022-12-29T08:59:07.946Z,15.00
2022-12-29T09:01:37.360Z,14.00
2022-12-29T09:04:14.696Z,14.83
2022-12-29T09:06:42.317Z,14.10
2022-12-29T09:09:09.314Z,12.60
2022-12-29T09:11:36.271Z,14.87
2022-12-29T09:14:03.599Z,14.33
2022-12-29T09:16:30.853Z,14.43
2022-12-29T09:18:57.929Z,11.83
2022-12-29T09:21:25.149Z,13.20
2022-12-29T09:23:52.124Z,12.20
2022-12-29T09:26:19.343Z,12.40
2022-12-29T09:28:46.967Z,13.97
2022-12-29T09:31:14.579Z,11.70
2022-12-29T09:33:41.511Z,12.37
2022-12-29T09:36:10.049Z,10.90
2022-12-29T09:38:37.537Z,10.43
2022-12-29T09:41:44.696Z,9.93
2022-12-29T09:44:47.530Z,10.00
2022-12-29T09:47:17.336Z,10.73
2022-12-29T09:49:58.059Z,10.07
2022-12-29T09:52:31.783Z,9.87
2022-12-29T09:55:24.276Z,10.57
2022-12-29T09:58:06.394Z,9.13
2022-12-29T10:00:58.614Z,11.03
2022-12-29T10:03:33.705Z,9.33
2022-12-29T10:06:56.445Z,11.40
2022-12-29T10:09:44.576Z,9.10
2022-12-29T10:12:44.702Z,10.50
2022-12-29T10:15:39.378Z,10.20
2022-12-29T10:18:27.730Z,11.97
2022-12-29T10:21:24.873Z,10.60
2022-12-29T10:23:56.189Z,12.17
2022-12-29T10:26:42.731Z,12.63
2022-12-29T10:29:21.905Z,13.57
2022-12-29T10:32:26.272Z,14.50
2022-12-29T10:34:59.299Z,13.10
2022-12-29T10:37:46.349Z,12.63
2022-12-29T10:40:44.476Z,14.57
2022-12-29T10:43:30.991Z,13.13
2022-12-29T10:46:09.713Z,11.63
2022-12-29T10:48:39.769Z,12.87
2022-12-29T10:51:09.679Z,13.23
2022-12-29T10:53:44.955Z,11.83
2022-12-29T10:56:45.912Z,11.70
2022-12-29T10:59:34.602Z,11.00
2022-12-29T11:02:27.756Z,9.63
2022-12-29T11:05:06.522Z,9.47
2022-12-29T11:07:33.492Z,10.50
2022-12-29T11:10:41.790Z,10.23
2022-12-29T11:13:25.996Z,10.47
2022-12-29T11:15:53.453Z,11.40
2022-12-29T11:18:33.883Z,10.30
2022-12-29T11:21:03.837Z,10.67
2022-12-29T11:23:41.204Z,9.93
2022-12-29T11:26:21.531Z,10.47
2022-12-29T11:29:16.794Z,10.00
2022-12-29T11:32:00.083Z,11.63
2022-12-29T11:34:34.580Z,11.13
2022-12-29T11:37:07.765Z,9.57
2022-12-29T11:39:39.045Z,10.73
2022-12-29T11:42:13.925Z,10.70
2022-12-29T11:44:46.611Z,10.60
2022-12-29T11:47:32.401Z,11.73
2022-12-29T11:50:06.611Z,12.37
2022-12-29T11:52:40.267Z,12.10
2022-12-29T11:55:20.587Z,15.80
2022-12-29T11:57:48.051Z,14.57
2022-12-29T12:00:22.201Z,15.40
2022-12-29T12:03:03.612Z,14.57
2022-12-29T12:05:57.444Z,14.33
2022-12-29T12:08:52.646Z,14.63
2022-12-29T12:11:43.218Z,14.40
2022-12-29T12:14:19.221Z,14.20
2022-12-29T12:16:58.324Z,14.37
2022-12-29T12:19:44.287Z,20.27
2022-12-29T12:22:33.013Z,17.30
2022-12-29T12:25:19.334Z,14.27
2022-12-29T12:28:00.100Z,15.73
2022-12-29T12:30:37.389Z,13.93
2022-12-29T12:33:21.276Z,13.07
2022-12-29T12:36:41.685Z,13.80
2022-12-29T12:40:00.243Z,13.90
2022-12-29T12:42:49.677Z,13.87
2022-12-29T12:46:05.752Z,15.07
2022-12-29T12:48:54.180Z,13.90
2022-12-29T12:51:59.455Z,14.03
2022-12-29T12:54:44.073Z,16.17
2022-12-29T12:57:29.238Z,16.50
2022-12-29T13:00:12.791Z,15.27
2022-12-29T13:02:54.743Z,15.87
2022-12-29T13:05:26.991Z,15.30
2022-12-29T13:08:27.301Z,16.77
2022-12-29T13:11:02.994Z,17.00
2022-12-29T13:13:51.978Z,16.40
2022-12-29T13:16:43.583Z,16.50
2022-12-29T13:20:01.138Z,17.97
2022-12-29T13:22:49.295Z,18.80
2022-12-29T13:25:49.687Z,18.40
2022-12-29T13:29:17.391Z,18.83
2022-12-29T13:32:19.224Z,17.80
2022-12-29T13:35:11.879Z,16.80
2022-12-29T13:37:51.516Z,17.43
2022-12-29T13:40:25.933Z,18.57
2022-12-29T13:42:54.334Z,17.70
2022-12-29T13:45:25.792Z,18.30
2022-12-29T13:48:18.386Z,18.70
2022-12-29T13:50:56.300Z,18.80
2022-12-29T13:53:54.000Z,19.43
2022-12-29T13:56:43.540Z,19.20
2022-12-29T13:59:37.137Z,18.20
2022-12-29T14:02:13.208Z,18.43
2022-12-29T14:05:04.947Z,18.20
2022-12-29T14:07:38.873Z,18.70
2022-12-29T14:10:07.250Z,20.37
2022-12-29T14:12:44.171Z,18.90
2022-12-29T14:15:10.983Z,19.40
2022-12-29T14:17:41.161Z,18.70
2022-12-29T14:20:21.797Z,19.77
2022-12-29T14:23:11.270Z,21.40
2022-12-29T14:26:07.106Z,21.07
2022-12-29T14:28:35.255Z,19.37
2022-12-29T14:31:27.130Z,19.00
2022-12-29T14:34:12.531Z,17.83
2022-12-29T14:37:02.761Z,17.80
2022-12-29T14:39:46.001Z,17.17
2022-12-29T14:42:14.031Z,18.03
2022-12-29T14:44:58.278Z,17.90
2022-12-29T14:47:31.355Z,16.20
2022-12-29T14:50:12.196Z,17.57
2022-12-29T14:53:04.075Z,17.50
2022-12-29T14:55:55.341Z,22.03
2022-12-29T14:58:29.803Z,19.43
2022-12-29T15:00:57.907Z,18.87
2022-12-29T15:03:47.585Z,21.27
2022-12-29T15:06:19.769Z,22.90
2022-12-29T15:09:21.379Z,18.73
2022-12-29T15:12:37.145Z,18.47
2022-12-29T15:15:28.650Z,18.90
2022-12-29T15:17:57.056Z,18.87
2022-12-29T15:20:29.678Z,19.27
2022-12-29T15:23:07.528Z,18.47
2022-12-29T15:25:34.472Z,18.30
2022-12-29T15:28:05.403Z,19.37
2022-12-29T15:30:32.587Z,17.80
2022-12-29T15:32:59.651Z,21.73
2022-12-29T15:35:32.937Z,19.53
2022-12-29T15:38:01.221Z,21.27
2022-12-29T15:40:33.710Z,20.20
2022-12-29T15:43:27.409Z,20.83
2022-12-29T15:45:56.152Z,20.50
2022-12-29T15:48:25.403Z,20.00
2022-12-29T15:50:52.997Z,18.57
2022-12-29T15:53:29.042Z,20.17
2022-12-29T15:56:08.178Z,19.17
2022-12-29T15:58:51.289Z,20.23
2022-12-29T16:01:28.850Z,23.50
2022-12-29T16:03:56.025Z,28.00
2022-12-29T16:06:36.102Z,25.23
2022-12-29T16:09:08.247Z,22.13
2022-12-29T16:11:48.968Z,21.93
2022-12-29T16:14:21.604Z,25.33
2022-12-29T16:16:50.160Z,23.07
2022-12-29T16:19:33.241Z,22.90
2022-12-29T16:22:03.451Z,22.57
2022-12-29T16:24:34.343Z,22.80
2022-12-29T16:27:08.890Z,23.43
2022-12-29T16:29:36.823Z,22.37
2022-12-29T16:32:04.306Z,23.27
2022-12-29T16:34:44.039Z,23.13
2022-12-29T16:37:37.100Z,24.77
2022-12-29T16:40:20.573Z,22.70
2022-12-29T16:42:52.136Z,22.17
2022-12-29T16:45:19.542Z,22.47
2022-12-29T16:48:08.420Z,23.20
2022-12-29T16:50:38.752Z,22.40
2022-12-29T16:53:07.635Z,22.87
2022-12-29T16:55:34.726Z,26.20
2022-12-29T16:58:01.746Z,25.07
2022-12-29T17:00:38.084Z,24.43
2022-12-29T17:03:05.179Z,21.43
2022-12-29T17:05:32.159Z,23.97
2022-12-29T17:08:02.119Z,20.43
2022-12-29T17:10:47.855Z,23.60
2022-12-29T17:13:14.795Z,22.73
2022-12-29T17:15:41.779Z,23.50
2022-12-29T17:18:13.823Z,22.53
2022-12-29T17:20:42.212Z,25.10
2022-12-29T17:23:19.868Z,23.63
2022-12-29T17:25:55.238Z,21.80
2022-12-29T17:28:25.048Z,23.47
2022-12-29T17:30:55.760Z,21.67
2022-12-29T17:33:22.837Z,20.97
2022-12-29T17:35:55.121Z,17.80
2022-12-29T17:38:32.429Z,18.50
2022-12-29T17:40:59.593Z,18.33
2022-12-29T17:43:30.076Z,18.23
2022-12-29T17:46:01.713Z,16.87
2022-12-29T17:48:28.610Z,17.37
2022-12-29T17:50:58.037Z,18.53
2022-12-29T17:53:29.616Z,17.23
2022-12-29T17:55:56.690Z,17.50
2022-12-29T17:58:29.659Z,18.03
2022-12-29T18:00:59.988Z,17.97
2022-12-29T18:03:32.433Z,17.80
2022-12-29T18:06:00.410Z,16.90
2022-12-29T18:08:29.419Z,16.60
2022-12-29T18:10:57.257Z,21.33
2022-12-29T18:13:39.337Z,18.47
2022-12-29T18:16:13.777Z,19.33
2022-12-29T18:18:40.899Z,17.10
2022-12-29T18:21:19.692Z,17.47
2022-12-29T18:23:47.453Z,17.73
2022-12-29T18:26:25.462Z,19.20
2022-12-29T18:28:54.935Z,18.07
2022-12-29T18:31:26.247Z,18.37
2022-12-29T18:33:54.696Z,19.30
2022-12-29T18:36:22.186Z,20.47
2022-12-29T18:38:50.673Z,20.30
2022-12-29T18:41:29.048Z,23.10
2022-12-29T18:43:56.783Z,22.97
2022-12-29T18:46:24.080Z,20.67
2022-12-29T18:48:52.680Z,23.33
2022-12-29T18:51:23.161Z,22.53
2022-12-29T18:53:50.799Z,20.57
2022-12-29T18:56:17.777Z,24.20
2022-12-29T18:58:44.747Z,22.80
2022-12-29T19:01:26.694Z,21.77
2022-12-29T19:03:54.227Z,22.40
2022-12-29T19:06:21.797Z,19.17
2022-12-29T19:08:49.028Z,19.80
2022-12-29T19:11:16.158Z,24.23
2022-12-29T19:13:43.062Z,21.83
2022-12-29T19:16:20.546Z,21.73
2022-12-29T19:19:02.390Z,21.67
2022-12-29T19:21:35.068Z,20.67
2022-12-29T19:24:01.943Z,23.70
2022-12-29T19:26:36.623Z,21.90
2022-12-29T19:29:06.117Z,22.37
2022-12-29T19:31:33.719Z,22.97
2022-12-29T19:34:03.006Z,22.97
2022-12-29T19:36:30.029Z,21.97
2022-12-29T19:38:57.048Z,20.70
2022-12-29T19:41:24.580Z,21.90
2022-12-29T19:43:51.609Z,22.73
2022-12-29T19:46:20.614Z,22.77
2022-12-29T19:48:47.685Z,24.00
2022-12-29T19:51:17.161Z,23.27
2022-12-29T19:53:45.940Z,22.00
2022-12-29T19:56:14.380Z,22.97
2022-12-29T19:58:46.927Z,24.50
2022-12-29T20:01:21.702Z,25.10
2022-12-29T20:03:49.892Z,23.63
2022-12-29T20:06:17.689Z,24.60
2022-12-29T20:08:44.864Z,25.00
2022-12-29T20:11:15.650Z,25.03
2022-12-29T20:13:43.862Z,24.10
2022-12-29T20:16:16.620Z,24.60
2022-12-29T20:18:44.149Z,22.20
2022-12-29T20:21:18.764Z,22.87
2022-12-29T20:23:47.097Z,24.13
2022-12-29T20:26:29.163Z,22.50
2022-12-29T20:28:58.160Z,23.13
2022-12-29T20:31:30.487Z,21.60
2022-12-29T20:33:57.757Z,22.93
2022-12-29T20:36:31.761Z,23.47
2022-12-29T20:39:01.650Z,23.23
2022-12-29T20:41:30.912Z,23.47
2022-12-29T20:43:58.156Z,24.43
2022-12-29T20:46:33.736Z,23.43
2022-12-29T20:49:04.018Z,23.00
2022-12-29T20:51:59.220Z,34.13
2022-12-29T20:54:21.496Z,29.43
2022-12-29T20:56:48.973Z,24.40
2022-12-29T20:59:31.460Z,23.87
2022-12-29T21:01:58.986Z,25.47
2022-12-29T21:04:26.548Z,25.10
2022-12-29T21:06:54.469Z,27.00
2022-12-29T21:09:21.695Z,27.40
2022-12-29T21:11:49.211Z,24.87
2022-12-29T21:14:16.326Z,25.80
2022-12-29T21:16:43.979Z,25.97
2022-12-29T21:19:10.977Z,26.07
2022-12-29T21:21:37.902Z,27.17
2022-12-29T21:24:08.410Z,25.17
2022-12-29T21:26:35.841Z,27.87
2022-12-29T21:29:03.473Z,26.73
2022-12-29T21:31:32.234Z,28.40
2022-12-29T21:33:59.524Z,26.97
2022-12-29T21:36:27.821Z,27.63
2022-12-29T21:38:56.056Z,26.10
2022-12-29T21:41:23.310Z,26.20
2022-12-29T21:44:10.034Z,28.50
2022-12-29T21:46:40.224Z,25.83
2022-12-29T21:49:07.815Z,28.03
2022-12-29T21:51:50.769Z,24.90
2022-12-29T21:54:44.709Z,26.27
2022-12-29T21:57:33.560Z,27.20
2022-12-29T22:00:19.864Z,26.03
2022-12-29T22:03:05.620Z,27.53
2022-12-29T22:05:50.944Z,27.83
2022-12-29T22:08:36.842Z,22.10
2022-12-29T22:11:27.339Z,26.00
2022-12-29T22:13:56.238Z,24.87
2022-12-29T22:16:25.234Z,25.80
2022-12-29T22:18:52.617Z,24.63
2022-12-29T22:21:20.052Z,26.30
2022-12-29T22:23:46.989Z,25.17
2022-12-29T22:26:15.603Z,25.30
2022-12-29T22:28:46.104Z,23.60
2022-12-29T22:31:29.158Z,24.90
2022-12-29T22:34:02.023Z,24.03
2022-12-29T22:36:29.986Z,24.47
2022-12-29T22:38:57.159Z,22.77
2022-12-29T22:41:24.404Z,22.07
2022-12-29T22:43:51.369Z,22.23
2022-12-29T22:46:18.294Z,23.30
2022-12-29T22:48:45.335Z,21.80
2022-12-29T22:51:12.250Z,22.27
2022-12-29T22:53:40.584Z,21.93
2022-12-29T22:56:11.943Z,24.50
2022-12-29T22:58:44.539Z,23.63
2022-12-29T23:01:14.884Z,26.90
2022-12-29T23:03:43.011Z,23.63
2022-12-29T23:06:14.163Z,25.70
2022-12-29T23:08:41.221Z,23.13
2022-12-29T23:11:11.702Z,24.97
2022-12-29T23:13:41.130Z,25.50
2022-12-29T23:16:08.498Z,25.47
2022-12-29T23:18:35.515Z,26.40
2022-12-29T23:21:02.659Z,28.17
2022-12-29T23:23:58.549Z,26.70
2022-12-29T23:26:39.028Z,28.60
2022-12-29T23:29:13.876Z,26.70
2022-12-29T23:31:41.338Z,26.63
2022-12-29T23:34:10.337Z,26.47
2022-12-29T23:36:37.397Z,28.80
2022-12-29T23:39:05.529Z,25.60
2022-12-29T23:41:32.525Z,25.37
2022-12-29T23:43:59.496Z,25.27
2022-12-29T23:46:29.531Z,25.37
2022-12-29T23:48:56.991Z,27.70
2022-12-29T23:51:24.132Z,27.23
2022-12-29T23:53:51.159Z,25.60
2022-12-29T23:56:22.530Z,23.97
2022-12-29T23:58:50.107Z,25.70
